createdAt,value
2023-02-08T00:01:29.852Z,98480.09
2023-02-08T00:03:33.680Z,98468.84
2023-02-08T00:05:37.617Z,98468.59
2023-02-08T00:07:41.456Z,98470.25
2023-02-08T00:09:45.252Z,98456.72
2023-02-08T00:11:50.692Z,98463.94
2023-02-08T00:13:54.846Z,98466.25
2023-02-08T00:15:58.713Z,98463.38
2023-02-08T00:18:02.899Z,98456.28
2023-02-08T00:20:07.596Z,98452.94
2023-02-08T00:22:11.445Z,98457.59
2023-02-08T00:24:15.317Z,98462.31
2023-02-08T00:26:19.134Z,98458.16
2023-02-08T00:28:24.509Z,98461.84
2023-02-08T00:30:28.481Z,98451.41
2023-02-08T00:32:32.324Z,98455.19
2023-02-08T00:34:36.198Z,98453.31
2023-02-08T00:36:40.053Z,98442.28
2023-02-08T00:38:45.501Z,98449.41
2023-02-08T00:40:49.342Z,98448.69
2023-02-08T00:42:54.818Z,98448.91
2023-02-08T00:45:00.126Z,98444.31
2023-02-08T00:47:03.941Z,98451.06
2023-02-08T00:49:09.292Z,98459.59
2023-02-08T00:51:15.243Z,98450.44
2023-02-08T00:53:19.079Z,98455.69
2023-02-08T00:55:22.946Z,98445.38
2023-02-08T00:57:26.750Z,98449.16
2023-02-08T00:59:30.560Z,98445.25
2023-02-08T01:01:35.828Z,98435.19
2023-02-08T01:03:41.589Z,98428.44
2023-02-08T01:05:45.441Z,98434.56
2023-02-08T01:07:49.645Z,98431.38
2023-02-08T01:09:53.509Z,98428.41
2023-02-08T01:11:57.591Z,98432.09
2023-02-08T01:14:01.468Z,98439.09
2023-02-08T01:16:10.617Z,98432.19
2023-02-08T01:18:15.780Z,98429.25
2023-02-08T01:20:20.194Z,98429.81
2023-02-08T01:22:24.041Z,98432.81
2023-02-08T01:24:27.852Z,98430.06
2023-02-08T01:26:32.260Z,98434.72
2023-02-08T01:28:36.239Z,98423.66
2023-02-08T01:30:40.337Z,98427.69
2023-02-08T01:32:45.761Z,98419.84
2023-02-08T01:34:50.955Z,98422.34
2023-02-08T01:36:55.324Z,98418.31
2023-02-08T01:38:59.519Z,98421.19
2023-02-08T01:41:03.579Z,98419.97
2023-02-08T01:43:10.807Z,98423.66
2023-02-08T01:45:27.991Z,98422.47
2023-02-08T01:47:31.874Z,98418.69
2023-02-08T01:49:36.980Z,98424.03
2023-02-08T01:51:46.424Z,98408.34
2023-02-08T01:53:51.034Z,98423.91
2023-02-08T01:55:56.866Z,98414.03
2023-02-08T01:58:02.759Z,98415.94
2023-02-08T02:00:10.824Z,98421.41
2023-02-08T02:02:22.664Z,98417.97
2023-02-08T02:04:26.703Z,98419.28
2023-02-08T02:06:33.926Z,98412.88
2023-02-08T02:08:39.384Z,98416.78
2023-02-08T02:10:45.115Z,98415.31
2023-02-08T02:12:49.123Z,98411.09
2023-02-08T02:14:53.159Z,98415.94
2023-02-08T02:16:56.953Z,98405.88
2023-02-08T02:19:00.806Z,98407.06
2023-02-08T02:21:32.527Z,98414.28
2023-02-08T02:24:11.822Z,98400.06
2023-02-08T02:26:53.027Z,98403.03
2023-02-08T02:29:45.594Z,98403.16
2023-02-08T02:32:00.854Z,98406.47
2023-02-08T02:34:05.873Z,98399.22
2023-02-08T02:36:15.901Z,98392.13
2023-02-08T02:38:28.917Z,98399.22
2023-02-08T02:40:41.122Z,98406.13
2023-02-08T02:43:19.959Z,98405.03
2023-02-08T02:45:29.735Z,98399.59
2023-02-08T02:47:39.863Z,98405.03
2023-02-08T02:49:49.271Z,98403.03
2023-02-08T02:51:58.744Z,98401.59
2023-02-08T02:54:05.764Z,98395.88
2023-02-08T02:56:13.378Z,98398.28
2023-02-08T02:58:17.604Z,98402.06
2023-02-08T03:00:24.366Z,98396.38
2023-02-08T03:02:28.858Z,98402.06
2023-02-08T03:04:55.144Z,98398.03
2023-02-08T03:07:03.461Z,98392.34
2023-02-08T03:09:26.820Z,98391.78
2023-02-08T03:11:32.641Z,98391.97
2023-02-08T03:13:48.196Z,98389.50
2023-02-08T03:16:01.275Z,98394.47
2023-02-08T03:18:11.981Z,98394.13
2023-02-08T03:20:17.525Z,98399.00
2023-02-08T03:22:23.571Z,98389.97
2023-02-08T03:24:30.195Z,98395.31
2023-02-08T03:26:37.210Z,98395.44
2023-02-08T03:28:42.539Z,98389.50
2023-02-08T03:30:52.287Z,98389.38
2023-02-08T03:32:58.760Z,98388.16
2023-02-08T03:35:04.811Z,98400.28
2023-02-08T03:37:12.314Z,98393.41
2023-02-08T03:39:20.330Z,98395.53
2023-02-08T03:41:27.549Z,98393.88
2023-02-08T03:43:33.630Z,98391.06
2023-02-08T03:45:40.695Z,98394.00
2023-02-08T03:47:44.788Z,98393.03
2023-02-08T03:49:49.696Z,98404.88
2023-02-08T03:51:53.667Z,98403.25
2023-02-08T03:53:58.884Z,98402.91
2023-02-08T03:56:03.481Z,98401.84
2023-02-08T03:58:11.779Z,98399.56
2023-02-08T04:00:17.351Z,98399.59
2023-02-08T04:02:22.385Z,98399.69
2023-02-08T04:04:26.326Z,98400.91
2023-02-08T04:06:30.160Z,98397.81
2023-02-08T04:08:34.041Z,98399.72
2023-02-08T04:10:40.010Z,98391.16
2023-02-08T04:12:44.332Z,98395.78
2023-02-08T04:14:48.676Z,98386.31
2023-02-08T04:16:52.673Z,98390.69
2023-02-08T04:18:56.524Z,98392.56
2023-02-08T04:21:00.327Z,98394.72
2023-02-08T04:23:04.200Z,98394.97
2023-02-08T04:25:08.142Z,98389.03
2023-02-08T04:27:13.323Z,98389.50
2023-02-08T04:29:17.157Z,98389.75
2023-02-08T04:31:21.173Z,98390.69
2023-02-08T04:33:25.089Z,98387.50
2023-02-08T04:35:29.174Z,98383.47
2023-02-08T04:37:33.307Z,98385.69
2023-02-08T04:39:37.109Z,98377.63
2023-02-08T04:41:42.515Z,98380.88
2023-02-08T04:43:47.691Z,98374.94
2023-02-08T04:45:51.556Z,98380.63
2023-02-08T04:47:55.369Z,98384.16
2023-02-08T04:49:59.218Z,98376.00
2023-02-08T04:52:03.091Z,98381.31
2023-02-08T04:54:06.932Z,98377.03
2023-02-08T04:56:10.782Z,98375.41
2023-02-08T04:58:14.642Z,98377.88
2023-02-08T05:00:20.492Z,98375.88
2023-02-08T05:02:24.799Z,98370.28
2023-02-08T05:04:28.630Z,98368.16
2023-02-08T05:06:32.493Z,98373.50
2023-02-08T05:08:36.720Z,98372.31
2023-02-08T05:10:45.945Z,98367.19
2023-02-08T05:12:49.795Z,98372.94
2023-02-08T05:14:53.901Z,98372.06
2023-02-08T05:16:59.187Z,98381.09
2023-02-08T05:19:03.060Z,98378.94
2023-02-08T05:21:07.124Z,98380.84
2023-02-08T05:23:10.981Z,98381.69
2023-02-08T05:25:15.134Z,98381.94
2023-02-08T05:27:19.091Z,98395.69
2023-02-08T05:29:23.240Z,98393.78
2023-02-08T05:31:27.168Z,98391.75
2023-02-08T05:33:33.040Z,98389.50
2023-02-08T05:35:36.835Z,98387.63
2023-02-08T05:37:40.647Z,98395.09
2023-02-08T05:39:44.484Z,98393.06
2023-02-08T05:41:48.296Z,98392.09
2023-02-08T05:43:52.111Z,98391.66
2023-02-08T05:45:55.971Z,98389.63
2023-02-08T05:47:59.791Z,98397.56
2023-02-08T05:50:05.781Z,98407.31
2023-02-08T05:52:09.980Z,98403.41
2023-02-08T05:54:13.801Z,98405.16
2023-02-08T05:56:17.639Z,98412.97
2023-02-08T05:58:21.833Z,98406.94
2023-02-08T06:00:25.830Z,98408.00
2023-02-08T06:02:29.683Z,98408.72
2023-02-08T06:04:33.887Z,98411.69
2023-02-08T06:06:39.054Z,98418.34
2023-02-08T06:08:42.892Z,98419.06
2023-02-08T06:10:49.351Z,98414.03
2023-02-08T06:12:53.165Z,98420.34
2023-02-08T06:14:57.067Z,98418.81
2023-02-08T06:17:00.950Z,98416.91
2023-02-08T06:19:04.745Z,98421.19
2023-02-08T06:21:08.553Z,98422.00
2023-02-08T06:23:13.721Z,98427.22
2023-02-08T06:25:17.733Z,98429.25
2023-02-08T06:27:21.748Z,98438.00
2023-02-08T06:29:25.859Z,98428.31
2023-02-08T06:31:29.712Z,98437.19
2023-02-08T06:33:33.553Z,98439.19
2023-02-08T06:35:37.951Z,98436.59
2023-02-08T06:37:41.792Z,98436.00
2023-02-08T06:39:46.943Z,98429.38
2023-02-08T06:41:50.788Z,98437.41
2023-02-08T06:43:54.608Z,98438.50
2023-02-08T06:45:58.560Z,98429.09
2023-02-08T06:48:02.424Z,98432.31
2023-02-08T06:50:07.399Z,98437.66
2023-02-08T06:52:11.208Z,98436.94
2023-02-08T06:54:15.909Z,98443.25
2023-02-08T06:56:21.092Z,98448.19
2023-02-08T06:58:24.913Z,98441.34
2023-02-08T07:00:28.771Z,98445.34
2023-02-08T07:02:32.668Z,98441.81
2023-02-08T07:04:36.883Z,98444.88
2023-02-08T07:06:40.707Z,98435.78
2023-02-08T07:08:44.526Z,98435.06
2023-02-08T07:10:48.532Z,98447.84
2023-02-08T07:12:53.728Z,98440.16
2023-02-08T07:14:57.662Z,98438.84
2023-02-08T07:17:02.072Z,98444.66
2023-02-08T07:19:05.958Z,98440.50
2023-02-08T07:21:11.308Z,98439.66
2023-02-08T07:23:15.138Z,98438.94
2023-02-08T07:25:19.205Z,98436.47
2023-02-08T07:27:25.942Z,98439.44
2023-02-08T07:29:31.866Z,98431.84
2023-02-08T07:31:35.710Z,98440.59
2023-02-08T07:33:39.559Z,98434.69
2023-02-08T07:35:43.427Z,98435.28
2023-02-08T07:37:47.347Z,98438.47
2023-02-08T07:40:42.740Z,98436.56
2023-02-08T07:42:47.058Z,98437.88
2023-02-08T07:45:06.865Z,98442.50
2023-02-08T07:47:11.153Z,98442.41
2023-02-08T07:49:16.894Z,98442.03
2023-02-08T07:51:23.045Z,98451.28
2023-02-08T07:53:26.879Z,98450.94
2023-02-08T07:55:32.681Z,98449.16
2023-02-08T07:57:53.045Z,98456.16
2023-02-08T08:01:19.717Z,98455.09
2023-02-08T08:04:21.354Z,98454.03
2023-02-08T08:06:31.190Z,98458.31
2023-02-08T08:08:35.353Z,98462.34
2023-02-08T08:11:34.113Z,98463.06
2023-02-08T08:13:39.112Z,98459.38
2023-02-08T08:15:45.425Z,98460.19
2023-02-08T08:17:50.844Z,98462.44
2023-02-08T08:19:54.876Z,98470.16
2023-02-08T08:21:58.808Z,98460.91
2023-02-08T08:24:02.840Z,98465.63
2023-02-08T08:26:10.496Z,98464.81
2023-02-08T08:28:15.209Z,98459.69
2023-02-08T08:30:19.694Z,98471.09
2023-02-08T08:32:23.805Z,98470.84
2023-02-08T08:34:33.581Z,98470.63
2023-02-08T08:36:43.916Z,98473.25
2023-02-08T08:41:52.690Z,98470.84
2023-02-08T08:44:11.064Z,98477.75
2023-02-08T08:46:16.651Z,98468.97
2023-02-08T08:48:23.652Z,98474.19
2023-02-08T08:50:29.569Z,98475.13
2023-02-08T09:07:09.336Z,98476.09
2023-02-08T09:09:14.991Z,98471.81
2023-02-08T09:11:19.194Z,98471.47
2023-02-08T09:13:26.370Z,98473.25
2023-02-08T09:15:30.587Z,98475.13
2023-02-08T09:17:34.623Z,98477.03
2023-02-08T09:19:38.571Z,98476.09
2023-02-08T09:25:10.356Z,98478.81
2023-02-08T09:27:14.811Z,98476.44
2023-02-08T09:29:47.513Z,98472.78
2023-02-08T09:33:08.161Z,98477.53
2023-02-08T09:35:00.739Z,98466.84
2023-02-08T09:43:10.554Z,98465.66
2023-02-08T09:45:59.934Z,98466.63
2023-02-08T09:48:20.809Z,98467.31
2023-02-08T09:50:33.989Z,98461.63
2023-02-08T09:54:15.292Z,98467.78
2023-02-08T09:56:22.586Z,98466.13
2023-02-08T09:58:29.321Z,98468.84
2023-02-08T10:00:36.435Z,98469.81
2023-02-08T10:03:39.523Z,98474.66
2023-02-08T10:05:53.281Z,98476.00
2023-02-08T10:08:01.163Z,98472.31
2023-02-08T10:10:08.022Z,98469.56
2023-02-08T10:12:18.416Z,98472.41
2023-02-08T10:15:02.973Z,98463.63
2023-02-08T10:17:21.291Z,98472.31
2023-02-08T10:20:29.050Z,98464.59
2023-02-08T10:22:40.978Z,98471.44
2023-02-08T10:25:15.247Z,98470.63
2023-02-08T10:27:23.717Z,98468.97
2023-02-08T10:30:10.164Z,98465.53
2023-02-08T10:32:35.282Z,98471.34
2023-02-08T10:34:45.881Z,98464.72
2023-02-08T10:36:50.249Z,98463.28
2023-02-08T10:38:58.410Z,98460.66
2023-02-08T10:41:03.701Z,98456.41
2023-02-08T10:43:20.785Z,98458.19
2023-02-08T10:45:27.328Z,98452.63
2023-02-08T10:51:39.607Z,98454.03
2023-02-08T10:57:50.155Z,98452.84
2023-02-08T11:01:11.099Z,98453.09
2023-02-08T11:04:02.265Z,98456.63
2023-02-08T11:06:06.713Z,98460.09
2023-02-08T11:08:13.955Z,98455.09
2023-02-08T11:10:27.744Z,98451.88
2023-02-08T11:12:31.605Z,98457.47
2023-02-08T11:14:46.604Z,98449.53
2023-02-08T11:16:52.464Z,98449.88
2023-02-08T11:19:01.271Z,98445.94
2023-02-08T11:21:07.965Z,98438.84
2023-02-08T11:23:23.879Z,98439.66
2023-02-08T11:25:37.895Z,98436.34
2023-02-08T11:27:45.040Z,98441.66
2023-02-08T11:29:48.927Z,98431.13
2023-02-08T11:32:01.470Z,98432.66
2023-02-08T11:34:06.678Z,98428.75
2023-02-08T11:36:13.452Z,98427.31
2023-02-08T11:38:27.230Z,98428.50
2023-02-08T11:40:33.916Z,98432.44
2023-02-08T11:42:39.081Z,98424.84
2023-02-08T11:44:44.561Z,98424.00
2023-02-08T11:46:48.805Z,98426.97
2023-02-08T11:48:55.136Z,98428.88
2023-02-08T11:51:00.947Z,98419.50
2023-02-08T11:53:07.945Z,98421.38
2023-02-08T11:55:25.111Z,98412.75
2023-02-08T11:57:29.544Z,98410.00
2023-02-08T11:59:34.001Z,98417.03
2023-02-08T12:01:42.433Z,98418.66
2023-02-08T12:03:47.951Z,98410.84
2023-02-08T12:05:57.712Z,98416.06
2023-02-08T12:08:09.319Z,98408.34
2023-02-08T12:10:50.074Z,98395.16
2023-02-08T12:13:10.711Z,98398.13
2023-02-08T12:15:24.929Z,98398.25
2023-02-08T12:33:46.402Z,98382.47
2023-02-08T12:52:34.809Z,98363.16
2023-02-08T13:30:33.214Z,98330.19
2023-02-08T13:32:41.462Z,98336.22
2023-02-08T13:34:48.876Z,98333.44
2023-02-08T13:36:55.690Z,98333.00
2023-02-08T13:39:00.137Z,98328.63
2023-02-08T13:41:14.180Z,98323.25
2023-02-08T13:43:34.782Z,98324.47
2023-02-08T13:45:42.812Z,98314.91
2023-02-08T13:47:49.443Z,98324.38
2023-02-08T13:49:56.841Z,98326.03
2023-02-08T13:52:02.255Z,98328.97
2023-02-08T13:54:11.652Z,98333.63
2023-02-08T13:56:21.174Z,98332.28
2023-02-08T13:59:04.534Z,98337.06
2023-02-08T14:01:19.647Z,98334.06
2023-02-08T14:03:25.011Z,98339.03
2023-02-08T14:05:48.538Z,98333.72
2023-02-08T14:07:52.365Z,98336.97
2023-02-08T14:10:31.896Z,98341.94
2023-02-08T14:12:40.974Z,98339.84
2023-02-08T14:14:44.811Z,98339.44
2023-02-08T14:17:10.023Z,98331.53
2023-02-08T14:19:24.566Z,98342.03
2023-02-08T14:21:33.558Z,98333.91
2023-02-08T14:23:40.489Z,98334.16
2023-02-08T14:25:46.332Z,98334.78
2023-02-08T14:27:54.823Z,98330.59
2023-02-08T14:30:00.169Z,98327.19
2023-02-08T14:32:06.215Z,98334.06
2023-02-08T14:34:25.323Z,98342.84
2023-02-08T14:36:36.770Z,98343.75
2023-02-08T14:39:25.060Z,98338.19
2023-02-08T14:45:31.192Z,98336.00
2023-02-08T14:48:23.559Z,98338.28
2023-02-08T14:50:42.860Z,98341.00
2023-02-08T15:11:24.972Z,98345.03
2023-02-08T15:32:22.777Z,98334.78
2023-02-08T15:34:35.995Z,98335.91
2023-02-08T15:44:19.787Z,98341.94
2023-02-08T15:46:26.650Z,98333.63
2023-02-08T15:49:24.057Z,98331.22
2023-02-08T15:54:17.869Z,98334.16
2023-02-08T15:56:35.735Z,98335.06
2023-02-08T15:58:41.607Z,98333.50
2023-02-08T16:15:39.292Z,98349.63
2023-02-08T16:25:51.264Z,98343.00
2023-02-08T16:27:55.728Z,98342.75
2023-02-08T16:29:59.754Z,98345.91
2023-02-08T16:32:11.915Z,98346.00
2023-02-08T16:48:13.524Z,98349.81
2023-02-08T16:50:24.080Z,98344.94
2023-02-08T16:53:48.718Z,98340.97
2023-02-08T16:57:09.159Z,98341.44
2023-02-08T17:19:16.292Z,98349.22
2023-02-08T17:45:36.048Z,98344.09
2023-02-08T17:51:02.116Z,98342.91
2023-02-08T17:53:46.864Z,98342.22
2023-02-08T17:55:51.157Z,98341.75
2023-02-08T17:58:10.710Z,98341.16
2023-02-08T18:00:22.428Z,98346.72
2023-02-08T18:03:11.325Z,98345.91
2023-02-08T18:05:16.080Z,98348.97
2023-02-08T18:08:14.582Z,98347.06
2023-02-08T18:15:59.249Z,98341.81
2023-02-08T18:18:05.390Z,98342.53
2023-02-08T18:18:09.243Z,98343.25
2023-02-08T18:20:16.791Z,98340.38
2023-02-08T18:26:40.951Z,98336.44
2023-02-08T18:29:35.883Z,98340.25
2023-02-08T18:31:46.730Z,98330.53
2023-02-08T18:34:43.631Z,98315.63
2023-02-08T18:40:43.819Z,98332.63
2023-02-08T18:42:56.542Z,98331.56
2023-02-08T18:46:07.764Z,98328.56
2023-02-08T18:48:15.814Z,98326.59
2023-02-08T18:50:55.712Z,98328.94
2023-02-08T18:56:47.656Z,98330.03
2023-02-08T19:04:36.033Z,98328.53
2023-02-08T19:06:47.764Z,98327.84
2023-02-08T19:09:12.410Z,98302.94
2023-02-08T19:11:28.295Z,98309.72
2023-02-08T19:18:04.083Z,98305.03
2023-02-08T19:31:22.786Z,98322.63
2023-02-08T19:34:07.722Z,98314.31
2023-02-08T19:36:39.419Z,98320.72
2023-02-08T19:49:47.997Z,98294.72
2023-02-08T19:51:53.042Z,98300.03
2023-02-08T19:54:01.537Z,98300.63
2023-02-08T19:56:10.739Z,98301.34
2023-02-08T19:58:16.118Z,98298.56
2023-02-08T20:00:46.487Z,98300.38
2023-02-08T20:03:05.721Z,98292.81
2023-02-08T20:06:27.755Z,98291.00
2023-02-08T20:12:30.557Z,98291.59
2023-02-08T20:14:47.643Z,98300.53
2023-02-08T20:21:07.813Z,98289.41
2023-02-08T20:23:22.685Z,98285.88
2023-02-08T20:25:36.437Z,98294.56
2023-02-08T20:27:43.194Z,98293.38
2023-02-08T20:29:47.803Z,98302.38
2023-02-08T20:31:55.820Z,98302.94
2023-02-08T20:34:03.374Z,98298.28
2023-02-08T20:36:11.102Z,98301.41
2023-02-08T20:38:15.510Z,98308.78
2023-02-08T20:40:20.270Z,98302.38
2023-02-08T20:42:24.603Z,98300.19
2023-02-08T20:44:29.196Z,98302.25
2023-02-08T20:46:40.981Z,98312.00
2023-02-08T20:49:48.511Z,98294.03
2023-02-08T21:44:25.322Z,98315.88
2023-02-08T21:46:30.294Z,98321.22
2023-02-08T21:48:54.690Z,98328.31
2023-02-08T21:51:19.121Z,98312.03
2023-02-08T21:53:40.826Z,98308.84
2023-02-08T21:55:48.531Z,98310.25
2023-02-08T21:57:53.865Z,98314.66
2023-02-08T21:59:59.515Z,98306.00
2023-02-08T22:02:05.627Z,98302.88
2023-02-08T22:04:09.780Z,98303.00
2023-02-08T22:06:16.541Z,98304.22
2023-02-08T22:08:20.895Z,98303.28
2023-02-08T22:10:26.520Z,98302.09
2023-02-08T22:12:36.641Z,98288.84
2023-02-08T22:14:41.197Z,98300.38
2023-02-08T22:16:46.098Z,98299.13
2023-02-08T22:18:50.383Z,98344.00
2023-02-08T22:20:54.561Z,98359.50
2023-02-08T22:22:58.920Z,98331.44
2023-02-08T22:25:03.345Z,98303.50
2023-02-08T22:27:07.732Z,98293.13
2023-02-08T22:29:16.291Z,98292.31
2023-02-08T22:31:20.697Z,98295.41
2023-02-08T22:33:25.066Z,98286.38
2023-02-08T22:35:29.361Z,98295.06
2023-02-08T22:37:35.504Z,98287.50
2023-02-08T22:39:39.934Z,98286.59
2023-02-08T22:41:44.117Z,98286.13
2023-02-08T22:43:48.934Z,98305.84
2023-02-08T22:46:01.174Z,98311.97
2023-02-08T22:48:06.816Z,98310.72
2023-02-08T22:50:11.431Z,98309.75
2023-02-08T22:52:15.725Z,98308.91
2023-02-08T22:54:20.036Z,98310.59
2023-02-08T22:56:25.216Z,98311.53
2023-02-08T22:58:29.612Z,98311.81
2023-02-08T23:00:34.009Z,98317.66
2023-02-08T23:02:40.020Z,98322.63
2023-02-08T23:04:44.279Z,98321.09
2023-02-08T23:06:48.685Z,98323.78
2023-02-08T23:08:53.274Z,98322.50
2023-02-08T23:11:00.544Z,98320.66
2023-02-08T23:13:04.608Z,98329.38
2023-02-08T23:15:10.928Z,98326.97
2023-02-08T23:17:14.796Z,98325.06
2023-02-08T23:19:20.129Z,98325.22
2023-02-08T23:21:24.051Z,98328.41
2023-02-08T23:23:27.925Z,98329.75
2023-02-08T23:25:31.893Z,98336.00
2023-02-08T23:27:35.827Z,98331.22
2023-02-08T23:29:39.796Z,98326.72
2023-02-08T23:31:44.614Z,98333.25
2023-02-08T23:33:48.636Z,98333.78
2023-02-08T23:35:54.229Z,98339.34
2023-02-08T23:37:58.104Z,98338.56
2023-02-08T23:40:02.008Z,98333.56
2023-02-08T23:42:06.227Z,98335.97
2023-02-08T23:44:10.175Z,98328.94
2023-02-08T23:46:17.476Z,98334.75
2023-02-08T23:48:21.937Z,98333.84
2023-02-08T23:50:25.867Z,98337.56
2023-02-08T23:52:31.149Z,98338.88
2023-02-08T23:54:35.056Z,98339.31
2023-02-08T23:56:40.750Z,98329.72
2023-02-08T23:58:44.960Z,98337.34
